Time;durP1;ratioP1;P1;durP2;ratioP2;P2;SDS_P1;SDS_P2;PMS_P1;PMS_P2;Temp;Humidity;BMP_temperature;BMP_pressure;BME280_temperature;BME280_humidity;BME280_pressure;Samples;Min_cycle;Max_cycle;Signal;HPM_P1;HPM_P2
2023/07/25 00:08:44;;;;;;;;;;;;;;;15.80;97.28;100543.03;21086701;28;19924;-63
2023/07/25 00:19:06;;;;;;;;;;;;;;;15.64;97.42;100531.78;21090431;28;20101;-63
2023/07/25 00:29:27;;;;;;;;;;;;;;;15.54;98.54;100541.88;21075288;28;19931;-63
2023/07/25 00:39:51;;;;;;;;;;;;;;;15.43;96.85;100538.16;21074823;28;20199;-63
2023/07/25 00:50:12;;;;;;;;;;;;;;;15.40;98.29;100551.34;21103119;28;19928;-63
2023/07/25 01:00:36;;;;;;;;;;;;;;;15.32;98.26;100548.31;21100806;27;19977;-63
2023/07/25 01:10:58;;;;;;;;;;;;;;;15.24;96.53;100537.44;21102340;27;19931;-63
2023/07/25 01:21:21;;;;;;;;;;;;;;;15.11;97.19;100545.06;21103922;27;19928;-63
2023/07/25 01:31:43;;;;;;;;;;;;;;;15.06;97.24;100557.50;21100955;27;20378;-63
2023/07/25 01:42:04;;;;;;;;;;;;;;;14.89;96.19;100584.44;21102621;27;19930;-63
2023/07/25 01:52:26;;;;;;;;;;;;;;;14.64;97.96;100573.59;21105246;27;20357;-62
2023/07/25 02:02:47;;;;;;;;;;;;;;;14.62;97.32;100583.25;21092800;27;19932;-63
2023/07/25 02:13:09;;;;;;;;;;;;;;;14.50;97.07;100578.69;21104705;27;20310;-63
2023/07/25 02:23:31;;;;;;;;;;;;;;;14.65;97.32;100583.09;21094135;27;20016;-63
2023/07/25 02:33:52;;;;;;;;;;;;;;;14.59;96.13;100579.97;21097531;27;21002;-63
2023/07/25 02:44:13;;;;;;;;;;;;;;;14.54;96.38;100585.38;21118963;27;19985;-63
2023/07/25 02:54:35;;;;;;;;;;;;;;;14.44;96.54;100581.56;21091209;27;19931;-63
2023/07/25 03:04:56;;;;;;;;;;;;;;;14.33;98.13;100575.22;21100146;27;19930;-63
2023/07/25 03:15:18;;;;;;;;;;;;;;;14.19;97.44;100575.88;21108206;27;20144;-62
2023/07/25 03:25:39;;;;;;;;;;;;;;;14.17;97.25;100579.47;21097492;27;19934;-63
2023/07/25 03:36:01;;;;;;;;;;;;;;;14.03;98.04;100569.69;21090403;27;19924;-63
2023/07/25 03:46:23;;;;;;;;;;;;;;;13.88;97.57;100565.25;21098882;27;19931;-62
2023/07/25 03:56:44;;;;;;;;;;;;;;;13.87;96.83;100576.56;21091821;27;19969;-63
2023/07/25 04:07:06;;;;;;;;;;;;;;;13.84;97.29;100568.91;21093144;28;20296;-62
2023/07/25 04:17:27;;;;;;;;;;;;;;;13.81;97.01;100572.50;21092370;28;19924;-63
2023/07/25 04:27:49;;;;;;;;;;;;;;;13.85;96.38;100566.25;21091270;27;19946;-62
2023/07/25 04:38:11;;;;;;;;;;;;;;;13.89;98.25;100572.13;21103147;27;19931;-62
2023/07/25 04:48:32;;;;;;;;;;;;;;;13.88;96.46;100567.88;21110183;27;19924;-63
2023/07/25 04:58:54;;;;;;;;;;;;;;;13.99;95.59;100574.22;21111914;27;20388;-62
2023/07/25 05:09:18;;;;;;;;;;;;;;;14.00;95.94;100569.88;21105601;27;19928;-63
2023/07/25 05:19:41;;;;;;;;;;;;;;;14.12;94.82;100569.25;21115932;27;19932;-62
2023/07/25 05:30:02;;;;;;;;;;;;;;;14.31;94.55;100596.13;21119994;27;19924;-63
2023/07/25 05:40:24;;;;;;;;;;;;;;;14.45;94.96;100606.69;21100903;27;20515;-63
2023/07/25 05:50:52;;;;;;;;;;;;;;;14.63;95.23;100603.16;21100471;27;19935;-63
2023/07/25 06:01:13;;;;;;;;;;;;;;;14.80;94.80;100615.34;21105303;27;19958;-63
2023/07/25 06:11:35;;;;;;;;;;;;;;;14.99;96.25;100616.09;21111035;27;20002;-63
2023/07/25 06:21:57;;;;;;;;;;;;;;;15.03;96.28;100612.41;21107484;27;19935;-63
2023/07/25 06:32:18;;;;;;;;;;;;;;;15.09;95.19;100607.72;21083839;27;20398;-63
2023/07/25 06:42:40;;;;;;;;;;;;;;;15.22;96.81;100607.09;21104534;27;19990;-63
2023/07/25 06:53:01;;;;;;;;;;;;;;;15.21;94.74;100615.81;21103353;27;20000;-63
2023/07/25 07:03:23;;;;;;;;;;;;;;;15.28;94.79;100620.63;21099719;27;19928;-63
2023/07/25 07:13:44;;;;;;;;;;;;;;;15.38;95.87;100628.81;21094582;27;20284;-63
2023/07/25 07:24:06;;;;;;;;;;;;;;;15.44;93.82;100638.97;21094718;27;19924;-63
2023/07/25 07:34:27;;;;;;;;;;;;;;;15.62;93.03;100638.78;21086224;27;19928;-63
2023/07/25 07:44:49;;;;;;;;;;;;;;;15.78;93.37;100651.88;21101961;27;19928;-63
2023/07/25 07:55:11;;;;;;;;;;;;;;;15.86;92.29;100662.72;21083658;27;19967;-63
2023/07/25 08:05:32;;;;;;;;;;;;;;;15.90;93.00;100657.25;21091574;27;19927;-63
2023/07/25 08:15:54;;;;;;;;;;;;;;;16.05;93.18;100663.41;21087606;28;19985;-63
2023/07/25 08:26:15;;;;;;;;;;;;;;;16.14;91.59;100652.47;21093301;28;19989;-62
2023/07/25 08:36:37;;;;;;;;;;;;;;;16.45;89.68;100652.41;21099202;28;20055;-63
2023/07/25 08:47:00;;;;;;;;;;;;;;;16.75;88.19;100658.53;21099341;28;19974;-63
2023/07/25 08:57:22;;;;;;;;;;;;;;;17.00;88.05;100648.31;21078038;28;19969;-63
2023/07/25 09:07:44;;;;;;;;;;;;;;;17.38;87.55;100647.81;21102968;28;20026;-63
2023/07/25 09:18:05;;;;;;;;;;;;;;;17.43;83.11;100648.34;21104506;27;19931;-63
2023/07/25 09:28:27;;;;;;;;;;;;;;;17.42;83.31;100667.59;21112955;27;19949;-63
2023/07/25 09:38:49;;;;;;;;;;;;;;;17.43;83.10;100667.53;21112009;27;20035;-63
2023/07/25 09:49:18;;;;;;;;;;;;;;;17.64;81.11;100662.75;21103428;27;19931;-63
2023/07/25 09:59:40;;;;;;;;;;;;;;;17.89;81.40;100648.03;21101503;27;20068;-63
2023/07/25 10:10:03;;;;;;;;;;;;;;;18.09;81.00;100657.28;21111528;27;20011;-63
2023/07/25 10:20:29;;;;;;;;;;;;;;;18.08;78.17;100668.69;21098764;27;19933;-63
2023/07/25 10:30:52;;;;;;;;;;;;;;;18.52;73.71;100653.59;21087850;27;20006;-63
2023/07/25 10:41:13;;;;;;;;;;;;;;;19.03;71.44;100649.25;21092762;27;20010;-64
2023/07/25 10:51:46;;;;;;;;;;;;;;;19.31;70.38;100643.84;21108304;27;20415;-63
2023/07/25 11:02:26;;;;;;;;;;;;;;;19.39;67.29;100640.72;21098097;27;19931;-63
2023/07/25 11:12:48;;;;;;;;;;;;;;;19.68;71.88;100626.38;21089702;27;19960;-63
2023/07/25 11:23:10;;;;;;;;;;;;;;;19.60;71.15;100633.94;21084901;27;19924;-63
2023/07/25 11:33:39;;;;;;;;;;;;;;;19.84;71.32;100626.97;21100772;27;20131;-63
2023/07/25 11:44:03;;;;;;;;;;;;;;;19.99;61.51;100620.59;21078869;27;19974;-64
2023/07/25 11:54:24;;;;;;;;;;;;;;;20.25;64.31;100616.97;21096928;27;19924;-63
2023/07/25 12:04:46;;;;;;;;;;;;;;;20.55;61.82;100622.56;21083970;27;19953;-64
2023/07/25 12:15:08;;;;;;;;;;;;;;;20.48;66.79;100618.72;21098120;28;20278;-64
2023/07/25 12:25:29;;;;;;;;;;;;;;;20.17;64.92;100635.06;21090545;28;19931;-63
2023/07/25 12:35:51;;;;;;;;;;;;;;;20.20;62.24;100645.34;21075168;28;20376;-63
2023/07/25 12:46:12;;;;;;;;;;;;;;;20.08;62.43;100651.47;21103238;28;19931;-63
2023/07/25 12:56:34;;;;;;;;;;;;;;;20.32;62.87;100649.72;21121644;27;20709;-63
2023/07/25 13:06:56;;;;;;;;;;;;;;;20.26;67.78;100654.59;21108760;27;20297;-63
2023/07/25 13:17:17;;;;;;;;;;;;;;;19.78;65.12;100682.53;21115337;27;19930;-63
2023/07/25 13:27:39;;;;;;;;;;;;;;;19.79;63.61;100660.59;21102578;27;19965;-64
2023/07/25 13:38:02;;;;;;;;;;;;;;;19.84;64.33;100690.00;21095210;27;19975;-63
2023/07/25 13:48:23;;;;;;;;;;;;;;;19.76;62.35;100692.34;21105858;27;20618;-64
2023/07/25 13:58:46;;;;;;;;;;;;;;;19.81;60.77;100691.03;21096933;27;20031;-63
2023/07/25 14:09:07;;;;;;;;;;;;;;;19.90;63.20;100686.94;21101398;27;19934;-63
2023/07/25 14:19:29;;;;;;;;;;;;;;;20.08;63.55;100692.66;21103665;27;19924;-63
2023/07/25 14:29:51;;;;;;;;;;;;;;;20.19;57.69;100695.41;21099016;27;20019;-63
2023/07/25 14:40:13;;;;;;;;;;;;;;;20.27;53.57;100700.97;21098321;27;20009;-64
2023/07/25 14:50:36;;;;;;;;;;;;;;;20.21;63.35;100717.16;21088010;27;20280;-63
2023/07/25 15:00:57;;;;;;;;;;;;;;;20.14;59.59;100715.88;21098129;27;20029;-63
2023/07/25 15:11:20;;;;;;;;;;;;;;;20.08;62.28;100727.69;21096297;27;19932;-63
2023/07/25 15:21:42;;;;;;;;;;;;;;;20.09;62.26;100737.22;21090101;27;19946;-63
2023/07/25 15:32:03;;;;;;;;;;;;;;;19.92;63.11;100755.97;21096954;27;20550;-63
2023/07/25 15:42:25;;;;;;;;;;;;;;;20.04;57.54;100757.72;21096831;27;19935;-64
2023/07/25 15:52:46;;;;;;;;;;;;;;;19.77;63.42;100762.28;21097600;27;19927;-64
2023/07/25 16:03:08;;;;;;;;;;;;;;;19.48;61.87;100773.94;21101957;27;19931;-64
2023/07/25 16:13:30;;;;;;;;;;;;;;;19.88;59.01;100771.13;21095743;28;20023;-63
2023/07/25 16:23:51;;;;;;;;;;;;;;;19.74;64.69;100775.66;21094670;27;19931;-63
2023/07/25 16:34:12;;;;;;;;;;;;;;;19.52;64.73;100788.56;21095332;27;19935;-63
2023/07/25 16:44:34;;;;;;;;;;;;;;;19.76;65.06;100781.63;21134915;27;19928;-63
2023/07/25 16:54:55;;;;;;;;;;;;;;;20.04;60.91;100786.63;21107313;27;19924;-64
2023/07/25 17:05:17;;;;;;;;;;;;;;;19.77;61.82;100804.31;21102572;27;19930;-63
2023/07/25 17:15:38;;;;;;;;;;;;;;;19.88;61.58;100809.66;21115858;27;20434;-63
2023/07/25 17:26:00;;;;;;;;;;;;;;;19.76;60.81;100810.53;21107595;27;19928;-63
2023/07/25 17:36:21;;;;;;;;;;;;;;;19.30;63.86;100822.38;21093438;27;19932;-63
2023/07/25 17:46:43;;;;;;;;;;;;;;;18.90;64.94;100827.59;21107145;27;20435;-63
2023/07/25 17:57:04;;;;;;;;;;;;;;;18.66;64.83;100833.59;21076921;27;19931;-63
2023/07/25 18:07:26;;;;;;;;;;;;;;;18.51;63.76;100855.50;21098504;27;19930;-63
2023/07/25 18:17:47;;;;;;;;;;;;;;;18.35;64.36;100860.81;21096971;27;19923;-63
2023/07/25 18:28:09;;;;;;;;;;;;;;;18.27;66.25;100857.84;21093506;27;19975;-63
2023/07/25 18:38:30;;;;;;;;;;;;;;;18.11;68.40;100856.25;21101270;27;19959;-63
2023/07/25 18:48:51;;;;;;;;;;;;;;;18.00;68.28;100865.56;21096076;27;20414;-63
2023/07/25 18:59:15;;;;;;;;;;;;;;;17.72;68.81;100875.16;21098183;27;19935;-63
2023/07/25 19:09:36;;;;;;;;;;;;;;;17.56;69.91;100879.63;21101317;27;19970;-63
2023/07/25 19:19:59;;;;;;;;;;;;;;;17.30;70.91;100901.16;21091681;27;19924;-63
2023/07/25 19:30:22;;;;;;;;;;;;;;;17.07;72.62;100902.44;21089465;27;20789;-63
2023/07/25 19:40:43;;;;;;;;;;;;;;;16.88;73.83;100912.22;21094937;27;20323;-63
2023/07/25 19:51:09;;;;;;;;;;;;;;;16.83;74.03;100929.91;21084933;27;20015;-63
2023/07/25 20:01:31;;;;;;;;;;;;;;;16.79;74.92;100931.03;21094673;27;20528;-63
2023/07/25 20:11:52;;;;;;;;;;;;;;;16.58;75.17;100929.53;21097679;28;19938;-63
2023/07/25 20:22:13;;;;;;;;;;;;;;;16.49;76.03;100938.72;21092576;28;20352;-63
2023/07/25 20:32:35;;;;;;;;;;;;;;;16.47;76.27;100953.63;21092963;28;19934;-62
2023/07/25 20:42:57;;;;;;;;;;;;;;;16.44;76.40;100953.78;21075439;28;19924;-63
2023/07/25 20:53:18;;;;;;;;;;;;;;;16.33;77.59;100965.69;21094204;28;19932;-62
2023/07/25 21:03:40;;;;;;;;;;;;;;;16.17;77.85;100976.06;21096408;28;19931;-62
2023/07/25 21:14:01;;;;;;;;;;;;;;;16.08;77.97;100986.97;21090583;27;20768;-63
2023/07/25 21:24:23;;;;;;;;;;;;;;;16.05;78.62;100987.97;21097545;27;19924;-63
2023/07/25 21:34:44;;;;;;;;;;;;;;;15.99;78.64;100982.19;21089938;27;19936;-63
2023/07/25 21:45:06;;;;;;;;;;;;;;;15.94;79.87;100989.41;21106477;27;19927;-63
2023/07/25 21:55:28;;;;;;;;;;;;;;;15.78;80.90;100991.97;21108222;27;19927;-63
2023/07/25 22:05:49;;;;;;;;;;;;;;;15.65;79.93;100995.22;21101294;27;20431;-63
2023/07/25 22:16:11;;;;;;;;;;;;;;;15.51;81.40;101005.47;21084249;27;19969;-63
2023/07/25 22:26:32;;;;;;;;;;;;;;;15.51;81.67;101008.09;21095751;27;19942;-63
2023/07/25 22:36:54;;;;;;;;;;;;;;;15.52;79.98;101007.16;21089276;27;19967;-63
2023/07/25 22:47:16;;;;;;;;;;;;;;;15.41;81.21;101010.28;21105636;27;19930;-63
2023/07/25 22:57:37;;;;;;;;;;;;;;;15.20;83.33;101005.19;21096458;27;19927;-63
2023/07/25 23:07:59;;;;;;;;;;;;;;;15.17;82.48;101005.31;21099317;27;19924;-63
2023/07/25 23:18:20;;;;;;;;;;;;;;;15.07;83.10;100995.31;21092517;27;19932;-63
2023/07/25 23:28:42;;;;;;;;;;;;;;;15.02;84.97;100997.28;21100391;27;20341;-63
2023/07/25 23:39:03;;;;;;;;;;;;;;;14.98;83.89;100995.72;21100042;27;19924;-63
2023/07/25 23:49:25;;;;;;;;;;;;;;;14.86;85.73;101003.25;21089240;27;20287;-63
2023/07/25 23:59:46;;;;;;;;;;;;;;;14.69;85.20;101009.22;21094762;27;20373;-63
